Time;durP1;ratioP1;P1;durP2;ratioP2;P2;SDS_P1;SDS_P2;PMS_P1;PMS_P2;Temp;Humidity;BMP_temperature;BMP_pressure;BME280_temperature;BME280_humidity;BME280_pressure;Samples;Min_cycle;Max_cycle;Signal;HPM_P1;HPM_P2
2021/07/13 00:00:11;;;;;;;10.20;6.60;;;25.10;99.90;;;;;;5010082;28;20359;-76
2021/07/13 00:02:37;;;;;;;14.05;6.07;;;25.10;99.90;;;;;;5001913;28;20057;-80
2021/07/13 00:05:07;;;;;;;10.63;5.70;;;25.00;99.90;;;;;;5010474;28;20062;-77
2021/07/13 00:07:32;;;;;;;9.65;6.57;;;25.00;99.90;;;;;;5019315;28;20511;-77
2021/07/13 00:09:58;;;;;;;7.70;5.40;;;25.00;99.90;;;;;;5016447;28;20079;-79
2021/07/13 00:12:23;;;;;;;13.05;5.95;;;25.00;99.90;;;;;;5024943;28;20068;-77
2021/07/13 00:14:49;;;;;;;15.32;6.13;;;25.10;99.90;;;;;;5007673;28;20045;-88
2021/07/13 00:17:15;;;;;;;10.38;5.60;;;25.10;99.90;;;;;;5012013;28;20030;-76
2021/07/13 00:19:41;;;;;;;12.70;5.97;;;25.10;99.90;;;;;;5015297;28;20032;-78
2021/07/13 00:22:06;;;;;;;7.47;5.43;;;25.10;99.90;;;;;;5001491;28;20030;-77
2021/07/13 00:24:32;;;;;;;7.63;5.20;;;25.10;99.90;;;;;;5014666;28;20061;-81
2021/07/13 00:26:59;;;;;;;13.85;5.28;;;25.20;99.90;;;;;;5001890;28;20046;-79
2021/07/13 00:29:25;;;;;;;8.48;6.05;;;25.10;99.90;;;;;;5002014;28;20033;-77
2021/07/13 00:31:50;;;;;;;9.55;6.18;;;25.20;99.90;;;;;;5013178;28;20032;-77
2021/07/13 00:34:16;;;;;;;9.95;5.63;;;25.20;99.90;;;;;;5014035;28;20096;-78
2021/07/13 00:36:44;;;;;;;15.10;6.32;;;25.20;99.90;;;;;;4991749;28;20030;-85
2021/07/13 00:39:11;;;;;;;7.47;6.55;;;25.20;99.90;;;;;;5013448;28;20033;-84
2021/07/13 00:41:37;;;;;;;11.45;6.45;;;25.20;99.90;;;;;;5012810;28;20033;-77
2021/07/13 00:44:03;;;;;;;11.02;6.72;;;25.20;99.90;;;;;;5013698;28;20544;-77
2021/07/13 00:46:29;;;;;;;9.68;7.20;;;25.10;99.90;;;;;;5011019;28;20022;-76
2021/07/13 00:48:55;;;;;;;9.43;6.65;;;25.00;99.90;;;;;;5013578;28;20505;-76
2021/07/13 00:51:21;;;;;;;13.98;7.47;;;24.90;99.90;;;;;;5008057;28;20026;-76
2021/07/13 00:53:47;;;;;;;12.40;7.20;;;24.90;99.90;;;;;;5013431;28;20044;-77
2021/07/13 00:56:13;;;;;;;11.25;7.32;;;24.80;99.90;;;;;;5012834;28;20033;-76
2021/07/13 00:58:39;;;;;;;10.48;7.28;;;24.80;99.90;;;;;;5013013;28;20634;-76
2021/07/13 01:01:11;;;;;;;9.75;7.50;;;24.70;99.90;;;;;;4994470;28;20033;-83
2021/07/13 01:03:37;;;;;;;12.63;7.72;;;24.70;99.90;;;;;;5010545;28;20065;-77
2021/07/13 01:06:03;;;;;;;8.98;7.13;;;24.70;99.90;;;;;;5012325;28;20061;-77
2021/07/13 01:08:54;;;;;;;9.32;7.57;;;24.70;99.90;;;;;;5009547;28;20761;-77
2021/07/13 01:11:34;;;;;;;14.75;7.60;;;24.70;99.90;;;;;;5013661;28;20076;-85
2021/07/13 01:14:14;;;;;;;15.35;7.30;;;24.70;99.90;;;;;;5013128;28;20109;-79
2021/07/13 01:16:45;;;;;;;14.30;7.10;;;24.70;99.90;;;;;;5008538;28;20479;-78
2021/07/13 01:19:35;;;;;;;8.50;7.33;;;24.70;99.90;;;;;;5012773;28;20032;-77
2021/07/13 01:22:02;;;;;;;11.73;7.65;;;24.80;99.90;;;;;;4990981;28;20042;-82
2021/07/13 01:24:36;;;;;;;13.20;7.13;;;24.80;99.90;;;;;;5012253;28;20060;-76
2021/07/13 01:27:11;;;;;;;10.63;7.15;;;24.90;99.90;;;;;;5012152;28;20152;-82
2021/07/13 01:29:40;;;;;;;12.20;7.13;;;24.90;99.90;;;;;;5012315;28;20060;-76
2021/07/13 01:32:07;;;;;;;10.68;6.65;;;24.90;99.90;;;;;;4999486;28;20041;-78
2021/07/13 01:34:39;;;;;;;12.85;7.57;;;24.80;99.90;;;;;;5012118;28;20021;-78
2021/07/13 01:37:08;;;;;;;9.75;7.03;;;24.90;99.90;;;;;;5012109;28;20025;-82
2021/07/13 01:39:35;;;;;;;14.02;8.25;;;24.90;99.90;;;;;;5012362;28;20087;-83
2021/07/13 01:42:10;;;;;;;10.93;7.65;;;24.90;99.90;;;;;;5004017;28;20029;-78
2021/07/13 01:44:40;;;;;;;9.75;7.07;;;24.80;99.90;;;;;;5012504;28;20416;-79
2021/07/13 01:47:06;;;;;;;9.75;6.93;;;24.80;99.90;;;;;;5002376;28;20014;-77
2021/07/13 01:49:34;;;;;;;15.57;6.88;;;24.80;99.90;;;;;;5012857;28;20061;-79
2021/07/13 01:52:01;;;;;;;16.27;7.38;;;24.80;99.90;;;;;;5001671;28;20040;-76
2021/07/13 01:54:29;;;;;;;12.38;6.80;;;24.80;99.90;;;;;;5005220;28;20512;-89
2021/07/13 01:56:59;;;;;;;8.48;6.13;;;24.70;99.90;;;;;;5014258;28;20030;-77
2021/07/13 01:59:26;;;;;;;11.55;6.38;;;24.70;99.90;;;;;;5004570;28;20037;-80
2021/07/13 02:01:58;;;;;;;12.75;6.18;;;24.70;99.90;;;;;;5008385;28;20088;-91
2021/07/13 02:04:35;;;;;;;12.77;6.30;;;24.70;99.90;;;;;;5011545;28;20029;-78
2021/07/13 02:07:07;;;;;;;12.07;6.30;;;24.80;99.90;;;;;;5012007;28;20049;-84
2021/07/13 02:09:36;;;;;;;13.27;7.25;;;24.80;99.90;;;;;;5008949;28;20045;-78
2021/07/13 02:12:03;;;;;;;12.35;6.10;;;24.70;99.90;;;;;;5010942;28;20034;-77
2021/07/13 02:14:29;;;;;;;11.45;5.70;;;24.70;99.90;;;;;;5012237;28;20041;-77
2021/07/13 02:16:54;;;;;;;8.40;5.88;;;24.80;99.90;;;;;;5011133;28;20080;-77
2021/07/13 02:19:22;;;;;;;9.43;5.70;;;24.70;99.90;;;;;;5011885;28;20018;-79
2021/07/13 02:21:49;;;;;;;7.88;5.13;;;24.70;99.90;;;;;;4983411;28;20049;-80
2021/07/13 02:24:20;;;;;;;6.25;5.03;;;24.70;99.90;;;;;;5010336;28;20048;-77
2021/07/13 02:26:54;;;;;;;7.88;5.47;;;24.60;99.90;;;;;;5005542;28;20064;-78
2021/07/13 02:29:38;;;;;;;9.98;5.10;;;24.60;99.90;;;;;;5012253;28;20034;-77
2021/07/13 02:32:10;;;;;;;12.30;5.28;;;24.60;99.90;;;;;;5010758;28;20026;-77
2021/07/13 02:34:42;;;;;;;11.02;5.45;;;24.60;99.90;;;;;;5012112;28;20398;-79
2021/07/13 02:37:09;;;;;;;7.43;5.45;;;24.60;99.90;;;;;;4994033;28;20109;-86
2021/07/13 02:39:38;;;;;;;6.68;5.00;;;24.60;99.90;;;;;;5012041;28;20065;-92
2021/07/13 02:42:05;;;;;;;9.27;5.43;;;24.50;99.90;;;;;;5010956;28;20104;-83
2021/07/13 02:44:36;;;;;;;5.95;5.22;;;24.50;99.90;;;;;;5012171;28;20096;-80
2021/07/13 02:47:07;;;;;;;8.32;5.07;;;24.50;99.90;;;;;;5011679;28;20049;-80
2021/07/13 02:49:37;;;;;;;8.88;5.57;;;24.50;99.90;;;;;;5012376;28;20032;-79
2021/07/13 02:52:05;;;;;;;15.80;5.47;;;24.50;99.90;;;;;;4987854;28;20454;-80
2021/07/13 02:54:31;;;;;;;12.77;5.63;;;24.50;99.90;;;;;;5011414;28;20034;-81
2021/07/13 02:57:00;;;;;;;12.00;5.05;;;24.40;99.90;;;;;;5004932;28;20077;-77
2021/07/13 02:59:28;;;;;;;12.68;4.95;;;24.40;99.90;;;;;;4994256;28;20026;-77
2021/07/13 03:01:54;;;;;;;5.57;4.25;;;24.50;99.90;;;;;;4994569;28;20033;-77
2021/07/13 03:04:21;;;;;;;10.60;5.40;;;24.50;99.90;;;;;;5011207;28;20022;-83
2021/07/13 03:06:47;;;;;;;11.40;5.13;;;24.50;99.90;;;;;;5006316;28;20113;-77
2021/07/13 03:09:13;;;;;;;8.68;4.40;;;24.50;99.90;;;;;;5010834;28;20078;-86
2021/07/13 03:11:40;;;;;;;6.32;5.20;;;24.50;99.90;;;;;;5011815;28;20124;-75
2021/07/13 03:14:08;;;;;;;7.47;4.85;;;24.50;99.90;;;;;;5011615;28;20109;-84
2021/07/13 03:16:37;;;;;;;14.65;4.88;;;24.40;99.90;;;;;;5011682;28;20025;-79
2021/07/13 03:19:04;;;;;;;7.53;4.43;;;24.50;99.90;;;;;;5011664;28;20026;-83
2021/07/13 03:21:34;;;;;;;14.57;5.38;;;24.40;99.90;;;;;;4999855;28;20018;-79
2021/07/13 03:24:03;;;;;;;6.93;4.97;;;24.40;99.90;;;;;;5005843;28;20045;-88
2021/07/13 03:26:35;;;;;;;10.88;4.72;;;24.40;99.90;;;;;;5012043;28;20030;-78
2021/07/13 03:29:02;;;;;;;8.57;4.75;;;24.40;99.90;;;;;;5011902;28;20021;-78
2021/07/13 03:31:31;;;;;;;19.98;4.38;;;24.40;99.90;;;;;;5010897;28;20072;-80
2021/07/13 03:34:00;;;;;;;10.07;3.63;;;24.40;99.90;;;;;;5010282;28;20092;-79
2021/07/13 03:36:26;;;;;;;7.40;4.13;;;24.50;99.90;;;;;;5007156;28;20028;-80
2021/07/13 03:38:52;;;;;;;17.58;3.85;;;24.60;99.90;;;;;;5010623;28;20107;-82
2021/07/13 03:41:19;;;;;;;4.82;3.22;;;24.70;99.90;;;;;;5009933;28;20030;-80
2021/07/13 03:43:45;;;;;;;5.28;3.10;;;24.90;99.90;;;;;;5011873;28;20084;-85
2021/07/13 03:46:11;;;;;;;5.97;3.17;;;25.10;99.90;;;;;;5001599;28;20099;-82
2021/07/13 03:51:40;;;;;;;10.80;2.85;;;25.30;99.90;;;;;;5000450;28;20526;-84
2021/07/13 03:54:06;;;;;;;8.48;2.80;;;25.50;99.90;;;;;;5008484;28;20667;-80
2021/07/13 03:56:32;;;;;;;6.53;2.60;;;25.60;99.90;;;;;;5015608;28;20064;-78
2021/07/13 03:58:58;;;;;;;7.70;2.83;;;25.70;99.90;;;;;;5015082;28;20021;-79
2021/07/13 04:01:24;;;;;;;7.82;2.45;;;25.80;99.90;;;;;;5015008;28;20685;-77
2021/07/13 04:03:49;;;;;;;3.17;2.20;;;25.90;99.90;;;;;;5014229;28;20053;-82
2021/07/13 04:06:15;;;;;;;6.53;2.80;;;26.00;99.90;;;;;;4998020;28;20100;-77
2021/07/13 04:08:48;;;;;;;8.43;3.25;;;26.00;99.90;;;;;;5006757;28;20036;-77
2021/07/13 04:11:14;;;;;;;5.40;2.50;;;26.00;99.90;;;;;;4979574;28;20049;-77
2021/07/13 04:13:48;;;;;;;11.25;2.72;;;26.10;99.90;;;;;;5014770;28;20026;-77
2021/07/13 04:16:15;;;;;;;12.77;3.30;;;26.20;99.90;;;;;;5013189;28;20037;-83
2021/07/13 04:18:42;;;;;;;9.85;3.20;;;26.20;99.90;;;;;;5014635;28;20429;-80
2021/07/13 04:21:08;;;;;;;6.15;3.20;;;26.30;99.90;;;;;;5014212;28;20033;-78
2021/07/13 04:23:37;;;;;;;8.52;3.13;;;26.50;99.90;;;;;;5006532;28;20054;-77
2021/07/13 04:26:06;;;;;;;11.57;3.67;;;26.50;99.90;;;;;;5007236;28;20109;-90
2021/07/13 04:28:33;;;;;;;6.55;2.70;;;26.50;99.90;;;;;;4996414;28;20034;-88
2021/07/13 04:31:01;;;;;;;5.43;2.58;;;26.60;99.90;;;;;;5006537;28;20074;-84
2021/07/13 04:33:33;;;;;;;11.75;3.05;;;26.70;99.90;;;;;;5004113;28;20048;-75
2021/07/13 04:35:59;;;;;;;7.40;3.20;;;26.80;99.90;;;;;;4995945;28;20151;-88
2021/07/13 04:38:25;;;;;;;4.53;2.78;;;26.90;99.90;;;;;;5013903;28;20505;-79
2021/07/13 04:40:52;;;;;;;6.05;2.88;;;27.10;99.90;;;;;;4996046;28;20021;-77
2021/07/13 04:43:17;;;;;;;8.55;3.35;;;27.20;99.90;;;;;;5014220;28;20018;-75
2021/07/13 04:45:43;;;;;;;5.72;2.63;;;27.40;99.90;;;;;;5013400;28;20041;-77
2021/07/13 04:48:09;;;;;;;9.13;3.00;;;27.50;99.90;;;;;;5013852;28;20029;-77
2021/07/13 04:50:35;;;;;;;5.95;2.95;;;27.70;99.90;;;;;;5009649;28;20030;-80
2021/07/13 04:53:01;;;;;;;11.48;2.75;;;27.80;99.90;;;;;;5008038;28;20046;-79
2021/07/13 04:55:26;;;;;;;3.58;2.85;;;28.00;99.90;;;;;;5009462;28;20121;-85
2021/07/13 04:57:52;;;;;;;6.13;3.15;;;28.20;99.90;;;;;;5006133;28;20102;-77
2021/07/13 05:00:18;;;;;;;4.03;2.85;;;28.40;99.90;;;;;;5011898;28;20028;-78
2021/07/13 05:02:44;;;;;;;8.00;3.22;;;28.50;99.60;;;;;;5013474;28;20030;-75
2021/07/13 05:05:11;;;;;;;4.63;2.50;;;28.70;99.50;;;;;;5012626;28;20510;-76
2021/07/13 05:07:44;;;;;;;10.60;3.25;;;28.80;99.50;;;;;;5013096;28;20109;-77
2021/07/13 05:10:11;;;;;;;8.98;2.90;;;29.10;99.20;;;;;;5010888;28;20022;-78
2021/07/13 05:12:38;;;;;;;6.40;2.63;;;29.50;98.70;;;;;;5012202;28;20025;-77
2021/07/13 05:15:07;;;;;;;14.75;3.25;;;29.70;98.30;;;;;;5011899;28;20034;-77
2021/07/13 05:17:33;;;;;;;19.10;3.15;;;29.90;98.20;;;;;;4998734;28;20032;-76
2021/07/13 05:19:59;;;;;;;8.02;2.70;;;30.30;97.80;;;;;;5012330;28;20025;-75
2021/07/13 05:22:25;;;;;;;7.63;3.10;;;30.70;97.50;;;;;;5010508;28;20102;-77
2021/07/13 05:24:50;;;;;;;9.38;2.97;;;31.00;96.70;;;;;;5012736;28;20099;-76
2021/07/13 05:27:17;;;;;;;11.00;3.63;;;31.50;96.40;;;;;;5011666;28;20029;-78
2021/07/13 05:29:43;;;;;;;5.85;2.60;;;32.00;95.90;;;;;;5012843;28;20026;-77
2021/07/13 05:32:09;;;;;;;8.10;2.55;;;32.50;95.00;;;;;;5011851;28;20490;-78
2021/07/13 05:34:34;;;;;;;12.05;3.28;;;33.10;94.70;;;;;;5002766;28;20049;-78
2021/07/13 05:37:00;;;;;;;8.95;2.25;;;33.50;94.00;;;;;;5011747;28;20049;-77
2021/07/13 05:39:26;;;;;;;12.70;3.00;;;33.70;92.30;;;;;;5009911;28;20044;-78
2021/07/13 05:41:54;;;;;;;9.73;3.00;;;33.70;92.20;;;;;;5003414;28;20057;-78
2021/07/13 05:44:19;;;;;;;7.85;3.45;;;33.60;91.60;;;;;;5010270;28;20475;-76
2021/07/13 05:46:45;;;;;;;6.78;2.35;;;33.40;91.40;;;;;;4999524;28;20564;-79
2021/07/13 05:49:11;;;;;;;14.85;2.47;;;33.70;91.90;;;;;;5012416;28;20026;-77
2021/07/13 05:51:36;;;;;;;10.50;2.50;;;33.80;91.20;;;;;;5010684;28;20516;-79
2021/07/13 05:54:02;;;;;;;4.80;2.03;;;34.20;91.00;;;;;;5011263;28;20034;-79
2021/07/13 05:56:28;;;;;;;11.60;3.00;;;34.20;90.50;;;;;;4998302;28;20030;-79
2021/07/13 05:58:54;;;;;;;11.15;2.45;;;34.40;89.80;;;;;;5011746;28;20028;-76
2021/07/13 06:01:19;;;;;;;10.32;2.80;;;34.20;90.20;;;;;;5005028;28;20030;-79
2021/07/13 06:03:45;;;;;;;5.93;2.28;;;34.70;90.00;;;;;;5012685;28;20030;-79
2021/07/13 06:06:10;;;;;;;8.38;2.70;;;35.20;89.40;;;;;;5002829;28;20471;-79
2021/07/13 06:08:39;;;;;;;5.18;2.72;;;35.50;87.40;;;;;;5009536;28;20034;-79
2021/07/13 06:11:04;;;;;;;4.53;2.45;;;35.70;86.50;;;;;;5009291;28;20022;-81
2021/07/13 06:13:31;;;;;;;7.70;3.25;;;36.20;86.00;;;;;;5012026;28;20041;-78
2021/07/13 06:15:56;;;;;;;7.05;2.47;;;36.10;85.40;;;;;;5006262;28;20101;-80
2021/07/13 06:18:22;;;;;;;13.63;2.60;;;36.40;85.20;;;;;;5011434;28;20109;-81
2021/07/13 06:20:48;;;;;;;6.65;2.53;;;36.50;84.60;;;;;;5007888;28;20104;-78
2021/07/13 06:23:14;;;;;;;12.75;2.80;;;36.80;83.80;;;;;;5008556;28;20042;-79
2021/07/13 06:25:40;;;;;;;5.38;2.97;;;36.90;83.20;;;;;;5008357;28;20080;-78
2021/07/13 06:28:06;;;;;;;11.73;3.10;;;37.20;83.40;;;;;;5011332;28;20022;-80
2021/07/13 06:30:34;;;;;;;7.25;2.90;;;37.00;82.10;;;;;;5010035;28;20056;-80
2021/07/13 06:33:00;;;;;;;6.70;2.45;;;36.80;82.80;;;;;;5002741;28;20037;-80
2021/07/13 06:35:26;;;;;;;9.75;2.13;;;36.60;81.80;;;;;;5010795;28;20109;-79
2021/07/13 06:37:51;;;;;;;5.05;2.22;;;36.60;82.10;;;;;;5009671;28;20034;-79
2021/07/13 06:40:17;;;;;;;12.75;3.20;;;37.10;81.90;;;;;;5009726;28;20483;-78
2021/07/13 06:42:43;;;;;;;8.52;2.67;;;37.20;80.80;;;;;;5000316;28;20026;-77
2021/07/13 06:45:09;;;;;;;14.60;2.20;;;37.20;81.30;;;;;;5010499;28;20022;-80
2021/07/13 06:47:35;;;;;;;12.00;2.83;;;37.70;79.60;;;;;;5000857;28;20033;-80
2021/07/13 06:50:01;;;;;;;16.38;3.55;;;38.30;79.80;;;;;;5011383;28;20022;-81
2021/07/13 06:52:29;;;;;;;10.32;2.90;;;38.90;78.80;;;;;;5008825;28;20025;-80
2021/07/13 06:54:55;;;;;;;5.10;2.30;;;39.50;77.80;;;;;;5006846;28;20030;-81
2021/07/13 06:57:23;;;;;;;5.70;1.85;;;39.30;76.60;;;;;;5011061;28;20022;-80
2021/07/13 06:59:49;;;;;;;5.10;2.50;;;38.10;77.80;;;;;;5011176;28;20131;-78
2021/07/13 07:02:14;;;;;;;5.78;2.65;;;36.90;79.70;;;;;;5011136;28;20113;-78
2021/07/13 07:04:40;;;;;;;11.77;2.60;;;36.50;80.70;;;;;;5010856;28;20046;-78
2021/07/13 07:07:06;;;;;;;17.45;2.40;;;36.30;81.90;;;;;;5005394;28;20057;-78
2021/07/13 07:09:31;;;;;;;12.38;2.35;;;35.50;82.00;;;;;;5011254;28;20489;-77
2021/07/13 07:12:02;;;;;;;5.10;2.40;;;35.00;83.40;;;;;;5009289;28;20030;-80
2021/07/13 07:14:28;;;;;;;;;;;34.90;83.80;;;;;;5010869;28;20041;-81
2021/07/13 07:16:53;;;;;;;8.77;2.50;;;34.60;83.80;;;;;;5009891;28;19914;-79
2021/07/13 07:19:19;;;;;;;9.38;2.20;;;34.50;83.70;;;;;;5008980;28;20045;-81
2021/07/13 07:21:45;;;;;;;5.57;2.50;;;34.90;83.50;;;;;;5008915;28;20113;-80
2021/07/13 07:24:10;;;;;;;17.42;3.40;;;35.60;83.10;;;;;;5007319;28;20461;-78
2021/07/13 07:26:36;;;;;;;11.10;3.00;;;35.80;82.10;;;;;;5008702;28;21349;-82
2021/07/13 07:29:02;;;;;;;6.20;2.13;;;35.80;81.40;;;;;;5012535;28;20022;-83
2021/07/13 07:31:30;;;;;;;14.45;2.22;;;35.70;78.80;;;;;;5017577;28;20379;-79
2021/07/13 07:33:58;;;;;;;12.43;2.20;;;35.40;80.40;;;;;;5014598;28;20066;-80
2021/07/13 07:36:26;;;;;;;14.32;2.33;;;34.90;80.30;;;;;;5010851;28;20036;-79
2021/07/13 07:38:53;;;;;;;6.72;1.75;;;34.70;81.00;;;;;;5019510;28;20026;-82
2021/07/13 07:41:20;;;;;;;3.70;2.03;;;34.70;82.50;;;;;;5014237;28;20018;-80
2021/07/13 07:43:46;;;;;;;3.58;1.88;;;34.90;81.20;;;;;;5014595;28;20065;-81
2021/07/13 07:46:12;;;;;;;6.20;2.10;;;34.90;80.90;;;;;;5011056;28;20433;-80
2021/07/13 07:48:38;;;;;;;2.97;1.80;;;34.90;80.00;;;;;;5014901;28;20047;-80
2021/07/13 07:51:04;;;;;;;3.25;1.60;;;34.90;80.60;;;;;;5012366;28;20528;-80
2021/07/13 07:53:30;;;;;;;5.93;2.15;;;34.70;80.60;;;;;;5013185;28;20029;-80
2021/07/13 07:55:59;;;;;;;5.00;2.00;;;35.10;80.00;;;;;;5013200;28;20375;-79
2021/07/13 07:58:25;;;;;;;8.75;2.00;;;35.10;80.30;;;;;;5014423;28;20022;-81
2021/07/13 08:00:54;;;;;;;7.70;1.80;;;34.90;79.40;;;;;;5012426;28;20025;-79
2021/07/13 08:03:19;;;;;;;8.65;1.95;;;34.70;79.20;;;;;;5013867;28;20030;-78
2021/07/13 08:05:45;;;;;;;2.67;1.90;;;34.70;79.60;;;;;;5014812;28;20087;-81
2021/07/13 08:08:11;;;;;;;5.68;1.90;;;34.70;79.10;;;;;;5014000;28;20119;-81
2021/07/13 08:10:37;;;;;;;7.35;2.25;;;34.70;77.90;;;;;;5014374;28;20477;-77
2021/07/13 08:13:05;;;;;;;3.83;1.58;;;34.40;78.50;;;;;;5014478;28;20061;-81
2021/07/13 08:15:31;;;;;;;4.63;2.00;;;34.20;78.80;;;;;;5014218;28;20565;-80
2021/07/13 08:17:59;;;;;;;3.92;1.80;;;34.20;79.00;;;;;;5012892;28;20033;-77
2021/07/13 08:20:25;;;;;;;5.30;1.92;;;33.90;79.20;;;;;;5013643;28;20097;-80
2021/07/13 08:22:51;;;;;;;3.80;1.90;;;33.90;80.00;;;;;;5012872;28;20101;-80
2021/07/13 08:25:20;;;;;;;11.32;2.10;;;33.90;80.10;;;;;;5013928;28;20025;-80
2021/07/13 08:27:46;;;;;;;8.60;2.58;;;33.80;80.60;;;;;;5014174;28;20489;-80
2021/07/13 08:30:13;;;;;;;8.80;2.15;;;33.60;80.90;;;;;;5014731;28;20045;-85
2021/07/13 08:32:39;;;;;;;19.55;2.92;;;33.60;81.40;;;;;;5014837;28;20026;-87
2021/07/13 08:35:06;;;;;;;3.90;1.95;;;33.50;81.70;;;;;;5015146;28;20383;-84
2021/07/13 08:37:33;;;;;;;8.27;2.33;;;33.70;83.20;;;;;;5014487;28;20479;-87
2021/07/13 08:40:08;;;;;;;8.70;1.95;;;33.80;82.50;;;;;;5014506;28;20101;-82
2021/07/13 08:42:39;;;;;;;7.90;2.28;;;33.80;81.50;;;;;;5014632;28;20030;-88
2021/07/13 08:45:14;;;;;;;4.47;1.80;;;33.70;82.60;;;;;;5014828;28;20030;-86
2021/07/13 08:47:41;;;;;;;6.20;1.88;;;33.40;82.60;;;;;;5015069;28;20018;-77
2021/07/13 08:50:11;;;;;;;6.03;2.08;;;33.60;83.30;;;;;;5014249;28;20474;-85
2021/07/13 08:52:38;;;;;;;10.00;2.30;;;33.70;82.40;;;;;;5014843;28;20060;-87
2021/07/13 08:55:05;;;;;;;7.60;2.30;;;33.50;82.30;;;;;;5014657;28;20036;-85
2021/07/13 08:57:31;;;;;;;5.40;2.35;;;33.40;82.40;;;;;;5012711;28;20075;-89
2021/07/13 09:00:02;;;;;;;9.40;2.55;;;33.40;83.60;;;;;;5013400;28;20068;-90
2021/07/13 09:02:27;;;;;;;17.85;2.47;;;33.60;82.70;;;;;;5011201;28;20080;-85
2021/07/13 09:04:53;;;;;;;2.72;1.80;;;33.50;81.70;;;;;;5009472;28;20038;-89
2021/07/13 09:07:19;;;;;;;10.55;2.40;;;33.40;82.90;;;;;;5013629;28;20026;-89
2021/07/13 09:09:48;;;;;;;18.08;3.45;;;33.20;82.60;;;;;;5014099;28;20152;-84
2021/07/13 09:12:19;;;;;;;6.28;2.40;;;33.20;83.10;;;;;;5010060;28;20033;-90
2021/07/13 09:14:57;;;;;;;12.10;2.58;;;33.10;82.70;;;;;;5013540;28;20493;-88
2021/07/13 09:17:40;;;;;;;8.65;3.03;;;32.90;82.90;;;;;;5013309;28;20471;-89
2021/07/13 09:20:14;;;;;;;14.43;2.35;;;32.80;83.30;;;;;;5010916;28;21058;-82
2021/07/13 09:22:51;;;;;;;10.35;2.45;;;32.70;84.30;;;;;;5012255;28;20113;-86
2021/07/13 09:25:33;;;;;;;12.35;2.63;;;32.80;84.30;;;;;;5010609;28;20104;-87
2021/07/13 09:28:18;;;;;;;12.82;2.17;;;32.60;84.10;;;;;;5011866;28;20018;-85
2021/07/13 09:30:54;;;;;;;8.18;2.63;;;32.30;84.30;;;;;;5012823;28;20402;-76
2021/07/13 09:33:35;;;;;;;5.72;2.42;;;32.30;84.90;;;;;;5011745;28;20498;-86
2021/07/13 09:36:11;;;;;;;8.57;2.65;;;32.40;85.10;;;;;;5013390;28;20022;-82
2021/07/13 09:38:52;;;;;;;7.60;2.70;;;32.60;85.90;;;;;;5012940;28;20111;-86
2021/07/13 09:41:25;;;;;;;8.03;2.50;;;32.60;85.30;;;;;;5012514;28;20022;-88
2021/07/13 09:43:53;;;;;;;18.40;2.83;;;32.90;85.70;;;;;;5012798;28;20030;-84
2021/07/13 09:46:30;;;;;;;5.82;1.95;;;33.30;85.80;;;;;;5012356;28;20053;-89
2021/07/13 09:49:05;;;;;;;10.82;2.83;;;33.50;84.20;;;;;;5012029;28;20083;-84
2021/07/13 09:51:31;;;;;;;6.50;2.60;;;33.50;84.90;;;;;;5010332;28;20026;-83
2021/07/13 09:53:56;;;;;;;15.05;2.90;;;33.20;84.90;;;;;;5012590;28;20426;-88
2021/07/13 09:56:44;;;;;;;11.55;2.90;;;33.00;85.40;;;;;;5012346;28;20034;-87
2021/07/13 09:59:10;;;;;;;11.02;2.67;;;32.50;84.80;;;;;;5009574;28;20029;-90
2021/07/13 10:01:35;;;;;;;19.10;3.13;;;32.30;84.50;;;;;;5012497;28;20667;-85
2021/07/13 10:04:02;;;;;;;21.63;2.70;;;32.10;85.40;;;;;;5011802;28;20045;-83
2021/07/13 10:06:33;;;;;;;11.75;2.78;;;31.80;86.20;;;;;;4993958;28;20418;-86
2021/07/13 10:09:00;;;;;;;28.07;3.13;;;31.70;87.40;;;;;;5011720;28;20024;-86
2021/07/13 10:11:28;;;;;;;9.30;2.78;;;31.80;87.30;;;;;;5009837;28;20506;-81
2021/07/13 10:13:58;;;;;;;11.05;2.90;;;31.90;88.00;;;;;;5011943;28;20041;-85
2021/07/13 10:16:24;;;;;;;4.57;2.85;;;31.80;88.10;;;;;;5011701;28;20040;-81
2021/07/13 10:18:50;;;;;;;27.23;3.38;;;31.60;88.50;;;;;;5011155;28;20105;-85
2021/07/13 10:21:17;;;;;;;8.60;2.08;;;31.50;89.10;;;;;;5011901;28;20143;-84
2021/07/13 10:23:44;;;;;;;14.18;2.70;;;31.30;88.40;;;;;;5010721;28;20454;-85
2021/07/13 10:26:14;;;;;;;6.80;2.60;;;31.10;88.70;;;;;;5011948;28;20463;-86
2021/07/13 10:28:39;;;;;;;10.07;3.20;;;31.00;89.30;;;;;;5010115;28;20391;-82
2021/07/13 10:31:06;;;;;;;14.70;3.35;;;30.90;90.00;;;;;;5010611;28;20014;-85
2021/07/13 10:33:35;;;;;;;8.68;2.58;;;30.90;90.00;;;;;;5011265;28;20364;-86
2021/07/13 10:36:29;;;;;;;7.00;2.45;;;30.90;90.00;;;;;;5009740;28;20434;-83
2021/07/13 10:39:30;;;;;;;3.70;2.30;;;31.00;90.00;;;;;;5010891;28;20145;-80
2021/07/13 10:41:57;;;;;;;7.65;3.45;;;31.10;89.40;;;;;;4990916;28;20041;-80
2021/07/13 10:44:41;;;;;;;17.23;3.30;;;31.20;89.80;;;;;;5008909;28;20064;-76
2021/07/13 10:47:25;;;;;;;9.63;2.58;;;31.50;90.10;;;;;;5010818;28;20029;-76
2021/07/13 10:50:16;;;;;;;3.90;2.25;;;31.70;90.00;;;;;;5010144;28;20076;-81
2021/07/13 10:52:52;;;;;;;15.15;2.72;;;31.80;90.00;;;;;;5012089;28;20415;-78
2021/07/13 10:55:30;;;;;;;11.00;2.45;;;31.80;89.60;;;;;;5012221;28;20025;-87
2021/07/13 10:58:14;;;;;;;8.82;2.67;;;31.90;90.10;;;;;;5010093;28;20097;-83
2021/07/13 11:00:54;;;;;;;13.65;2.72;;;31.90;89.40;;;;;;5009106;28;20512;-78
2021/07/13 11:03:32;;;;;;;8.00;2.83;;;31.80;90.30;;;;;;5012404;28;20501;-79
2021/07/13 11:06:17;;;;;;;4.95;2.55;;;31.80;90.20;;;;;;5012516;28;20022;-81
2021/07/13 11:08:46;;;;;;;10.18;2.42;;;31.80;90.00;;;;;;5011801;28;20025;-80
2021/07/13 11:11:15;;;;;;;10.38;2.60;;;31.70;90.10;;;;;;5012117;28;20529;-85
2021/07/13 11:13:48;;;;;;;6.88;3.00;;;31.70;90.20;;;;;;5012029;28;20069;-81
2021/07/13 11:16:20;;;;;;;5.80;3.03;;;31.70;90.20;;;;;;5011140;28;20026;-88
2021/07/13 11:18:46;;;;;;;10.65;2.90;;;31.80;90.30;;;;;;5011848;28;20390;-86
2021/07/13 11:21:27;;;;;;;5.32;2.75;;;31.70;90.20;;;;;;5010711;28;20026;-84
2021/07/13 11:23:55;;;;;;;7.63;2.57;;;31.50;90.70;;;;;;5009996;28;20046;-85
2021/07/13 11:26:23;;;;;;;14.95;2.95;;;31.30;91.10;;;;;;4993481;28;20327;-83
2021/07/13 11:28:58;;;;;;;6.68;2.72;;;31.20;91.00;;;;;;5006099;28;20049;-89
2021/07/13 11:31:32;;;;;;;13.90;3.15;;;31.10;91.20;;;;;;5011330;28;20415;-86
2021/07/13 11:33:59;;;;;;;7.72;3.45;;;30.90;90.90;;;;;;5006623;28;20406;-86
2021/07/13 11:36:27;;;;;;;8.90;2.65;;;30.80;91.30;;;;;;5011050;28;20447;-78
2021/07/13 11:38:53;;;;;;;15.90;3.00;;;30.70;91.40;;;;;;5009659;28;20121;-80
2021/07/13 11:41:20;;;;;;;10.88;3.33;;;30.60;91.40;;;;;;5009952;28;20101;-85
2021/07/13 11:43:51;;;;;;;9.90;3.33;;;30.50;91.80;;;;;;5009998;28;20071;-84
2021/07/13 11:46:22;;;;;;;24.00;3.08;;;30.40;92.00;;;;;;5009926;28;20021;-81
2021/07/13 11:49:07;;;;;;;19.13;3.10;;;30.30;91.90;;;;;;5007536;28;20029;-81
2021/07/13 11:51:40;;;;;;;11.40;2.88;;;30.30;92.20;;;;;;5010101;28;20049;-83
2021/07/13 11:54:11;;;;;;;13.07;2.83;;;30.30;92.50;;;;;;5009829;28;20033;-82
2021/07/13 11:56:45;;;;;;;8.52;3.40;;;30.40;92.50;;;;;;5009771;28;20075;-80
2021/07/13 11:59:14;;;;;;;9.52;3.00;;;30.60;92.50;;;;;;5007832;28;20068;-83
2021/07/13 12:01:40;;;;;;;13.15;3.33;;;30.70;92.20;;;;;;5009384;28;20050;-81
2021/07/13 12:04:08;;;;;;;8.02;2.85;;;30.80;92.10;;;;;;5009096;28;20069;-83
2021/07/13 12:06:36;;;;;;;8.70;3.17;;;31.10;91.60;;;;;;5009384;28;20022;-83
2021/07/13 12:09:09;;;;;;;4.35;2.67;;;31.30;91.10;;;;;;5009901;28;20030;-84
2021/07/13 12:11:37;;;;;;;9.13;2.90;;;31.70;91.60;;;;;;5009661;28;20037;-86
2021/07/13 12:14:05;;;;;;;13.30;2.80;;;32.00;91.00;;;;;;5012458;28;20029;-89
2021/07/13 12:16:34;;;;;;;6.78;2.80;;;32.30;90.80;;;;;;5005580;28;20348;-81
2021/07/13 12:19:05;;;;;;;9.80;3.00;;;32.40;90.30;;;;;;5011399;28;20414;-84
2021/07/13 12:21:32;;;;;;;6.90;2.65;;;32.50;90.40;;;;;;5014167;28;20044;-85
2021/07/13 12:23:59;;;;;;;15.63;3.03;;;32.50;90.10;;;;;;5014336;28;20038;-79
2021/07/13 12:26:30;;;;;;;11.80;2.70;;;32.40;90.40;;;;;;5014173;28;20034;-82
2021/07/13 12:29:00;;;;;;;4.72;3.13;;;32.30;90.80;;;;;;5013951;28;20515;-79
2021/07/13 12:31:26;;;;;;;6.72;2.60;;;32.30;90.80;;;;;;5012511;28;20096;-87
2021/07/13 12:33:53;;;;;;;5.85;2.55;;;32.20;90.30;;;;;;5012650;28;20034;-79
2021/07/13 12:36:29;;;;;;;11.18;3.17;;;32.20;90.00;;;;;;5013495;28;20367;-79
2021/07/13 12:38:57;;;;;;;17.27;2.67;;;32.10;89.90;;;;;;5012892;28;20033;-83
2021/07/13 12:41:27;;;;;;;13.13;3.10;;;32.00;90.10;;;;;;5012661;28;20062;-86
2021/07/13 12:43:52;;;;;;;10.73;3.20;;;32.00;90.40;;;;;;5013713;28;20092;-79
2021/07/13 12:46:29;;;;;;;8.82;2.92;;;31.90;90.00;;;;;;5013267;28;20112;-84
2021/07/13 12:48:57;;;;;;;15.90;2.90;;;31.90;90.30;;;;;;5012225;28;20182;-79
2021/07/13 12:51:27;;;;;;;8.15;2.38;;;31.90;90.40;;;;;;4994996;28;20033;-78
2021/07/13 12:54:07;;;;;;;14.60;3.00;;;32.00;90.90;;;;;;5010279;28;20556;-85